x

Nickerson Bank (44251) Wave Buoy

4:00pm - Wed 6th May 2015 All times are UTC.

  • Sig Wave height 6.9ft
  • Peak Period 7s
  • Wind
    13mph, 16mph gusts
  • Sea Temp 38°f
  • Air Temp 37°f
  • Sea Pressure 1011.1mb

More Historic Weather Station data

Upgrade to MSW Pro to gain access to the past 30 days of data for over 8000 Wavebouys and Weather Stations around the globe.

Join Pro

Comparision Forecast

View Surf forecast
   
Wed 05/06 4:00pm 7ft 7s 13 16 mph 1011.1mb 38f 37f
3:00pm 7ft 8s 18 22 mph 1011.3mb 38f 37f
2:00pm 6.5ft 7s 22 27 mph 1011.5mb 38f 37f
1:00pm 7ft 8s 20 22 mph 1011.6mb 38f 37f
12:00pm 6.5ft 7s 20 27 mph 1011.7mb 38f 37f
11:00am 7ft 8s 18 20 mph 1011.9mb 38f 38f
10:00am 6.5ft 7s 18 25 mph 1011.5mb 38f 37f
9:00am 6.5ft 8s 13 18 mph 1011.7mb 38f 36f
8:00am 6.5ft 8s 18 22 mph 1011.7mb 38f 36f
7:00am 7ft 7s 20 22 mph 1011.7mb 38f 37f
6:00am 7ft 8s 20 22 mph 1011.2mb 38f 36f
5:00am 7.5ft 8s 20 22 mph 1011.3mb 38f 36f
4:00am 8ft 7s 20 22 mph 1011.4mb 38f 36f
3:00am 7ft 7s 20 22 mph 1011mb 38f 37f
2:00am 6.5ft 7s 20 22 mph 1010.8mb 38f 37f
1:00am 6ft 6s 20 25 mph 1010mb 38f 37f
12:00am 6ft 7s 25 29 mph 1009.1mb 38f 37f
Tue 05/05 11:00pm 5ft 6s 20 25 mph 1008.4mb 38f 37f
10:00pm 4.5ft 6s 20 25 mph 1008.2mb 38f 37f
9:00pm 4.5ft 5s 13 16 mph 1008.6mb 38f 37f
8:00pm 4ft 5s 16 18 mph 1008.9mb 38f 37f
7:00pm 3.5ft 5s 18 20 mph 1009.6mb 39f 37f
6:00pm 3ft 10s 18 20 mph 1010.1mb 38f 38f
5:00pm 3.5ft 5s 13 16 mph 1010.8mb 38f 38f
4:00pm 3.5ft 10s 13
mph
1012.2mb 38f 37f
3:00pm 3.5ft 10s 11 13 mph 1013.4mb 38f 37f
2:00pm 3.5ft 9s 11 13 mph 1014.6mb 39f 36f
1:00pm 3ft 10s 13 16 mph 1015.6mb 39f 35f
12:00pm 3ft 10s 13 16 mph 1016.7mb 38f 35f
11:00am 3ft 9s 9 11 mph 1017.3mb 38f 36f
10:00am 3ft 10s 9
mph
1017.9mb 38f 35f
9:00am 3ft 10s 9
mph
1018.3mb 38f 35f
8:00am 3ft 10s 9
mph
1018.5mb 38f 35f
7:00am 3.5ft 8s 9 11 mph 1019.1mb 38f 35f
6:00am 3.5ft 9s 11 13 mph 1019.2mb 38f 35f
5:00am 3.5ft 9s 13 16 mph 1019.2mb 38f 36f
4:00am 3.5ft 9s 16 18 mph 1019.4mb 38f 36f
3:00am 3.5ft 9s 13 16 mph 1019.6mb 38f 36f
2:00am 3.5ft 10s 13 16 mph 1019.5mb 38f 36f
1:00am 3.5ft 8s 13 16 mph 1019.7mb 39f 36f
12:00am 3.5ft 9s 13 18 mph 1019.9mb 39f 36f
Mon 05/04 11:00pm 3.5ft 10s 11 16 mph 1019.6mb 39f 36f
10:00pm 3.5ft 9s 9 11 mph 1018.8mb 39f 37f
9:00pm 3.5ft 10s 13 16 mph 1018.7mb 39f 37f
8:00pm 3.5ft 9s 13 16 mph 1019.1mb 39f 38f
7:00pm 3.5ft 10s 13 18 mph 1019.7mb 39f 37f
6:00pm 3.5ft 9s 13 16 mph 1019.9mb 39f 37f
5:00pm 3.5ft 10s 11 13 mph 1019.8mb 39f 37f
4:00pm 3.5ft 10s 11 13 mph 1019.9mb 39f 36f
3:00pm 3.5ft 10s 7 9 mph 1020.2mb 39f 36f
2:00pm 3.5ft 10s 9 11 mph 1020.5mb 39f 36f
1:00pm 4ft 10s 9
mph
1020.4mb 39f 36f
12:00pm 4.5ft 10s 4 7 mph 1020.4mb 38f 36f
11:00am 4ft 9s 4
mph
1020.2mb 38f 36f
10:00am 4.5ft 10s 2 4 mph 1020.2mb 38f 35f
9:00am 4.5ft 10s 2
mph
1020.1mb 38f 35f
8:00am 4.5ft 10s 2 7 mph 1019.5mb 38f 34f
7:00am 5ft 11s 2 4 mph 1019.4mb 38f 35f
6:00am 4.5ft 11s 4
mph
1019.5mb 38f 34f
5:00am 4.5ft 10s 2 4 mph 1019.4mb 38f 35f
4:00am 4.5ft 10s 4
mph
1019.6mb 38f 34f
3:00am 4.5ft 10s 7 9 mph 1019.6mb 38f 35f
2:00am 4.5ft 10s 4 7 mph 1020mb 38f 35f
1:00am 5ft 11s 7 9 mph 1020.1mb 38f 35f
12:00am 5ft 10s 9 11 mph 1019.9mb 38f 35f
Sun 05/03 11:00pm 4.5ft 10s 9 11 mph 1019.5mb 38f 35f
10:00pm 4.5ft 10s 9 11 mph 1019mb 38f 35f
9:00pm 4.5ft 10s 9 11 mph 1018.9mb 38f 35f
8:00pm 5ft 10s 9 11 mph 1018.8mb 38f 35f
7:00pm 5ft 10s 9 11 mph 1018.8mb 38f 35f
6:00pm 5ft 11s 9 13 mph 1018.9mb 38f 35f
5:00pm 5ft 11s 9 11 mph 1018.9mb 38f 35f
4:00pm 5ft 10s 9 13 mph 1018.9mb 38f 35f
3:00pm 5ft 11s 11 13 mph 1019.1mb 38f 35f
2:00pm 5.5ft 11s 11 13 mph 1019.1mb 38f 36f
1:00pm 5ft 11s 13
mph
1018.9mb 38f 35f
12:00pm 5.5ft 10s 13 16 mph 1018.7mb 38f 35f
11:00am 5ft 11s 13 16 mph 1018.5mb 38f 35f
10:00am 6ft 11s 13 16 mph 1017.9mb 38f 34f
9:00am 6ft 11s 13 16 mph 1017.7mb 38f 34f
8:00am 6.5ft 11s 16 18 mph 1017.4mb 38f 34f
7:00am 6ft 11s 13 16 mph 1017.8mb 38f 34f
6:00am 6.5ft 11s 13 16 mph 1018mb 38f 35f
5:00am 6ft 11s 11 13 mph 1018.3mb 38f 35f
4:00am 5.5ft 11s 13 16 mph 1018.5mb 38f 35f
3:00am 5.5ft 11s 13 18 mph 1018.2mb 37f 35f
2:00am 6ft 11s 13 18 mph 1018.2mb 37f 35f
1:00am 6ft 11s 16 18 mph 1018.2mb 38f 35f
12:00am 5.5ft 11s 16 18 mph 1017.9mb 38f 35f
Sat 05/02 11:00pm 6ft 11s 16 18 mph 1017.6mb 38f 35f
10:00pm 6ft 11s 16 18 mph 1017.2mb 38f 35f
9:00pm 6ft 11s 16 18 mph 1017mb 38f 35f
8:00pm 6ft 11s 13 16 mph 1017mb 38f 35f
6:00pm 6ft 10s 13 18 mph 1017mb 38f 35f